Time;durP1;ratioP1;P1;durP2;ratioP2;P2;SDS_P1;SDS_P2;PMS_P1;PMS_P2;Temp;Humidity;BMP_temperature;BMP_pressure;BME280_temperature;BME280_humidity;BME280_pressure;Samples;Min_cycle;Max_cycle;Signal;HPM_P1;HPM_P2
2022/04/20 00:02:07;;;;;;;22.27;11.77;;;;;;;;;;5012040;28;95319;-76
2022/04/20 00:04:34;;;;;;;24.20;11.52;;;;;;;;;;5011020;28;96152;-75
2022/04/20 00:07:01;;;;;;;20.48;11.32;;;;;;;;;;5010986;28;96636;-74
2022/04/20 00:09:27;;;;;;;28.23;11.43;;;;;;;;;;5011860;28;95299;-76
2022/04/20 00:11:54;;;;;;;30.48;12.55;;;;;;;;;;5010979;28;96884;-74
2022/04/20 00:14:21;;;;;;;17.85;10.93;;;;;;;;;;5011646;28;97416;-75
2022/04/20 00:16:47;;;;;;;18.48;11.43;;;;;;;;;;5013621;28;95208;-77
2022/04/20 00:19:13;;;;;;;24.33;12.40;;;;;;;;;;5023513;28;95096;-76
2022/04/20 00:21:40;;;;;;;23.50;12.82;;;;;;;;;;5010963;28;95360;-76
2022/04/20 00:24:06;;;;;;;25.08;12.55;;;;;;;;;;5012140;28;95509;-76
2022/04/20 00:26:32;;;;;;;22.58;13.18;;;;;;;;;;5014506;28;97372;-76
2022/04/20 00:29:00;;;;;;;20.77;12.20;;;;;;;;;;5015156;28;95393;-74
2022/04/20 00:31:27;;;;;;;28.90;12.50;;;;;;;;;;5012692;28;96109;-76
2022/04/20 00:33:53;;;;;;;22.83;12.25;;;;;;;;;;5014953;28;97223;-76
2022/04/20 00:36:20;;;;;;;25.13;13.02;;;;;;;;;;5013548;28;95773;-75
2022/04/20 00:38:46;;;;;;;21.75;12.55;;;;;;;;;;5014951;28;96670;-74
2022/04/20 00:41:13;;;;;;;22.65;12.15;;;;;;;;;;5017304;28;97482;-76
2022/04/20 00:43:40;;;;;;;23.08;11.27;;;;;;;;;;5014708;28;96926;-74
2022/04/20 00:46:07;;;;;;;22.08;11.50;;;;;;;;;;5014448;28;97341;-75
2022/04/20 00:48:35;;;;;;;22.27;11.80;;;;;;;;;;5014697;28;95425;-73
2022/04/20 00:51:02;;;;;;;20.70;11.15;;;;;;;;;;5014650;28;96699;-73
2022/04/20 00:53:29;;;;;;;19.90;11.15;;;;;;;;;;5014059;28;97381;-73
2022/04/20 00:55:56;;;;;;;20.30;10.85;;;;;;;;;;5013690;28;95326;-75
2022/04/20 00:58:22;;;;;;;18.30;10.50;;;;;;;;;;5014466;28;96713;-74
2022/04/20 01:00:49;;;;;;;21.05;10.15;;;;;;;;;;5013836;28;97344;-75
2022/04/20 01:03:15;;;;;;;20.98;9.85;;;;;;;;;;5016929;28;95367;-76
2022/04/20 01:05:42;;;;;;;17.92;9.65;;;;;;;;;;5013990;28;96650;-77
2022/04/20 01:08:08;;;;;;;23.00;9.63;;;;;;;;;;5014463;28;95170;-75
2022/04/20 01:10:35;;;;;;;22.60;9.95;;;;;;;;;;5014592;28;96922;-74
2022/04/20 01:13:01;;;;;;;17.30;9.57;;;;;;;;;;5013917;28;96589;-75
2022/04/20 01:15:28;;;;;;;20.27;9.70;;;;;;;;;;5014296;28;95321;-75
2022/04/20 01:17:54;;;;;;;18.98;10.15;;;;;;;;;;5014802;28;96978;-76
2022/04/20 01:20:21;;;;;;;37.05;10.55;;;;;;;;;;5013695;28;97279;-75
2022/04/20 01:22:48;;;;;;;18.42;9.30;;;;;;;;;;5013777;28;95237;-76
2022/04/20 01:25:14;;;;;;;17.30;9.82;;;;;;;;;;5018009;28;96796;-77
2022/04/20 01:27:44;;;;;;;24.38;9.80;;;;;;;;;;5014777;28;95339;-77
2022/04/20 01:30:10;;;;;;;20.70;9.45;;;;;;;;;;5014420;28;96723;-76
2022/04/20 01:32:37;;;;;;;19.25;9.40;;;;;;;;;;5012921;28;96530;-76
2022/04/20 01:35:04;;;;;;;22.35;9.73;;;;;;;;;;5001305;27;95267;-76
2022/04/20 01:37:31;;;;;;;23.27;9.55;;;;;;;;;;5034362;27;97315;-77
2022/04/20 01:39:57;;;;;;;15.73;9.00;;;;;;;;;;5034529;28;97633;-75
2022/04/20 01:42:24;;;;;;;16.17;9.20;;;;;;;;;;5033645;28;95208;-77
2022/04/20 01:44:50;;;;;;;16.92;8.93;;;;;;;;;;5016226;28;96824;-77
2022/04/20 01:47:17;;;;;;;18.75;9.15;;;;;;;;;;5017294;28;97242;-76
2022/04/20 01:49:43;;;;;;;21.33;8.93;;;;;;;;;;5013747;28;95280;-75
2022/04/20 01:52:10;;;;;;;15.88;9.07;;;;;;;;;;5013776;28;97233;-76
2022/04/20 01:54:36;;;;;;;19.42;9.05;;;;;;;;;;5013943;28;95354;-76
2022/04/20 01:57:03;;;;;;;15.43;9.38;;;;;;;;;;5013434;28;96796;-76
2022/04/20 01:59:29;;;;;;;17.15;8.70;;;;;;;;;;5013341;28;97548;-76
2022/04/20 02:04:41;;;;;;;15.63;8.20;;;;;;;;;;5013802;28;97372;-76
2022/04/20 02:07:07;;;;;;;16.60;9.55;;;;;;;;;;5017052;28;97211;-77
2022/04/20 02:09:34;;;;;;;17.17;9.07;;;;;;;;;;5013595;28;96837;-76
2022/04/20 02:12:01;;;;;;;16.60;9.48;;;;;;;;;;5013280;28;97468;-78
2022/04/20 02:14:27;;;;;;;19.17;8.95;;;;;;;;;;5013481;28;95229;-77
2022/04/20 02:16:55;;;;;;;17.88;8.68;;;;;;;;;;5013713;28;96797;-74
2022/04/20 02:19:21;;;;;;;28.75;8.93;;;;;;;;;;5013059;28;101016;-76
2022/04/20 02:21:48;;;;;;;16.23;8.65;;;;;;;;;;5013183;28;95415;-75
2022/04/20 02:24:15;;;;;;;18.63;8.20;;;;;;;;;;5013977;28;96924;-73
2022/04/20 02:26:42;;;;;;;14.43;8.05;;;;;;;;;;5013043;28;97610;-74
2022/04/20 02:29:08;;;;;;;15.23;8.43;;;;;;;;;;5016849;28;95302;-74
2022/04/20 02:31:35;;;;;;;17.13;7.97;;;;;;;;;;5012036;28;97731;-74
2022/04/20 02:34:01;;;;;;;13.02;7.97;;;;;;;;;;5013821;28;95280;-73
2022/04/20 02:36:28;;;;;;;14.38;7.90;;;;;;;;;;5028534;28;96842;-74
2022/04/20 02:38:54;;;;;;;16.88;8.40;;;;;;;;;;5032668;28;96770;-74
2022/04/20 02:41:25;;;;;;;15.73;8.25;;;;;;;;;;5018587;28;95925;-75
2022/04/20 02:43:52;;;;;;;16.77;8.18;;;;;;;;;;5012646;28;95936;-75
2022/04/20 02:46:23;;;;;;;16.67;8.02;;;;;;;;;;5012241;28;97388;-73
2022/04/20 02:48:50;;;;;;;15.27;8.20;;;;;;;;;;5011732;28;95254;-75
2022/04/20 02:51:16;;;;;;;14.13;8.43;;;;;;;;;;5015723;28;96965;-74
2022/04/20 02:53:43;;;;;;;13.20;8.48;;;;;;;;;;5012927;28;95169;-74
2022/04/20 02:56:09;;;;;;;14.00;7.97;;;;;;;;;;5013391;28;96811;-75
2022/04/20 02:58:36;;;;;;;18.70;8.60;;;;;;;;;;5011458;28;96805;-75
2022/04/20 03:01:03;;;;;;;16.73;8.82;;;;;;;;;;5012044;28;95567;-74
2022/04/20 03:03:30;;;;;;;16.55;8.40;;;;;;;;;;5013139;28;96880;-74
2022/04/20 03:05:56;;;;;;;15.85;8.50;;;;;;;;;;5012839;28;97603;-74
2022/04/20 03:08:24;;;;;;;16.95;8.40;;;;;;;;;;5011035;28;95359;-75
2022/04/20 03:10:51;;;;;;;18.73;8.65;;;;;;;;;;5012154;28;96847;-77
2022/04/20 03:13:18;;;;;;;15.95;7.95;;;;;;;;;;5015608;28;97695;-74
2022/04/20 03:15:45;;;;;;;15.35;8.32;;;;;;;;;;5012744;28;96871;-75
2022/04/20 03:18:12;;;;;;;15.10;8.20;;;;;;;;;;5012772;28;96230;-75
2022/04/20 03:20:39;;;;;;;13.95;8.18;;;;;;;;;;5011686;28;95504;-74
2022/04/20 03:23:06;;;;;;;15.20;7.68;;;;;;;;;;5012956;28;96889;-76
2022/04/20 03:25:32;;;;;;;15.18;7.63;;;;;;;;;;5011207;28;97421;-75
2022/04/20 03:27:58;;;;;;;22.02;8.60;;;;;;;;;;5012664;28;95335;-77
2022/04/20 03:30:26;;;;;;;19.98;8.77;;;;;;;;;;5012381;28;97742;-77
2022/04/20 03:32:53;;;;;;;16.23;7.70;;;;;;;;;;5011889;28;97237;-74
2022/04/20 03:35:20;;;;;;;14.02;7.80;;;;;;;;;;5021032;28;96355;-75
2022/04/20 03:37:46;;;;;;;12.27;7.47;;;;;;;;;;5031116;28;97647;-77
2022/04/20 03:40:13;;;;;;;18.08;8.70;;;;;;;;;;5031786;28;95792;-73
2022/04/20 03:42:41;;;;;;;14.45;8.20;;;;;;;;;;5016023;28;97144;-76
2022/04/20 03:45:07;;;;;;;14.50;7.88;;;;;;;;;;5011107;28;97229;-76
2022/04/20 03:47:34;;;;;;;16.02;8.43;;;;;;;;;;5012206;28;96399;-77
2022/04/20 03:50:00;;;;;;;13.18;7.93;;;;;;;;;;5012143;28;96663;-77
2022/04/20 03:52:27;;;;;;;17.77;7.75;;;;;;;;;;5011357;28;97304;-77
2022/04/20 03:54:54;;;;;;;16.77;7.65;;;;;;;;;;5012410;28;95261;-77
2022/04/20 03:57:21;;;;;;;16.60;7.68;;;;;;;;;;5014171;28;96731;-74
2022/04/20 03:59:48;;;;;;;14.95;7.80;;;;;;;;;;5022138;28;95561;-74
2022/04/20 18:47:14;;;;;;;6.85;3.42;;;;;;;;;;5073207;27;95281;-74
2022/04/20 18:49:41;;;;;;;10.00;3.83;;;;;;;;;;5078813;27;97410;-75
2022/04/20 18:52:08;;;;;;;8.73;4.20;;;;;;;;;;5073278;27;95266;-74
2022/04/20 19:00:06;;;;;;;8.30;3.92;;;;;;;;;;5062889;27;96747;-75
2022/04/20 19:02:33;;;;;;;8.02;3.90;;;;;;;;;;5060984;27;96709;-74
2022/04/20 19:05:01;;;;;;;6.25;3.67;;;;;;;;;;5067656;27;97536;-74
2022/04/20 19:07:27;;;;;;;10.52;4.07;;;;;;;;;;5072721;27;95407;-75
2022/04/20 19:09:57;;;;;;;8.82;3.80;;;;;;;;;;5059680;27;97292;-75
2022/04/20 19:12:24;;;;;;;12.55;4.65;;;;;;;;;;5074848;27;95904;-75
2022/04/20 19:14:51;;;;;;;19.00;6.30;;;;;;;;;;5069544;27;96745;-76
2022/04/20 19:17:18;;;;;;;18.52;5.32;;;;;;;;;;5068260;27;97488;-75
2022/04/20 19:19:44;;;;;;;10.63;4.80;;;;;;;;;;5066371;27;95372;-76
2022/04/20 19:22:10;;;;;;;8.30;4.28;;;;;;;;;;5069407;27;96760;-75
2022/04/20 19:24:37;;;;;;;11.68;4.20;;;;;;;;;;5067122;27;97039;-74
2022/04/20 19:27:03;;;;;;;10.60;4.38;;;;;;;;;;5072701;27;96412;-75
2022/04/20 19:29:30;;;;;;;8.73;4.15;;;;;;;;;;5070600;27;96775;-75
2022/04/20 19:31:58;;;;;;;7.60;4.60;;;;;;;;;;5076375;27;96430;-76
2022/04/20 19:34:25;;;;;;;7.13;4.80;;;;;;;;;;5068005;27;95898;-75
2022/04/20 19:36:52;;;;;;;7.25;4.63;;;;;;;;;;5068790;27;97662;-75
2022/04/20 19:39:20;;;;;;;10.90;4.70;;;;;;;;;;5073958;27;95180;-74
2022/04/20 19:41:48;;;;;;;8.27;4.47;;;;;;;;;;5049437;27;97173;-76
2022/04/20 19:44:15;;;;;;;10.48;4.72;;;;;;;;;;5068792;27;97366;-75
2022/04/20 19:46:42;;;;;;;15.27;4.38;;;;;;;;;;5068593;27;95161;-76
2022/04/20 19:49:08;;;;;;;14.65;4.90;;;;;;;;;;5069026;27;96746;-75
2022/04/20 19:51:37;;;;;;;8.80;4.70;;;;;;;;;;5071290;27;97306;-74
2022/04/20 19:54:06;;;;;;;10.10;4.95;;;;;;;;;;5068196;27;95926;-76
2022/04/20 19:56:33;;;;;;;8.38;4.47;;;;;;;;;;5066254;27;97250;-76
2022/04/20 19:58:59;;;;;;;17.45;9.27;;;;;;;;;;5054560;27;96317;-75
2022/04/20 20:01:26;;;;;;;16.70;4.68;;;;;;;;;;5053425;27;95793;-75
2022/04/20 20:03:53;;;;;;;10.40;5.07;;;;;;;;;;5057962;27;97527;-76
2022/04/20 20:06:20;;;;;;;10.30;4.70;;;;;;;;;;5075075;27;95126;-75
2022/04/20 20:08:48;;;;;;;6.78;4.57;;;;;;;;;;5069250;27;96974;-75
2022/04/20 20:11:15;;;;;;;10.18;5.05;;;;;;;;;;5054390;27;96324;-75
2022/04/20 20:13:43;;;;;;;7.00;4.57;;;;;;;;;;5058068;27;95083;-74
2022/04/20 20:16:10;;;;;;;12.45;4.57;;;;;;;;;;5055169;27;97085;-75
2022/04/20 20:18:37;;;;;;;7.07;4.35;;;;;;;;;;5053490;27;95476;-78
2022/04/20 20:21:07;;;;;;;8.07;4.85;;;;;;;;;;5069224;27;96714;-77
2022/04/20 20:31:52;;;;;;;9.70;4.80;;;;;;;;;;5059379;27;96228;-77
2022/04/20 20:34:19;;;;;;;12.07;5.40;;;;;;;;;;5054633;27;95211;-77
2022/04/20 20:36:45;;;;;;;10.10;4.90;;;;;;;;;;5061150;27;96864;-78
2022/04/20 20:39:14;;;;;;;12.52;5.40;;;;;;;;;;5053355;27;95359;-77
2022/04/20 20:41:42;;;;;;;17.65;5.07;;;;;;;;;;5050773;27;96723;-76
2022/04/20 20:44:09;;;;;;;10.23;5.25;;;;;;;;;;5054941;27;95252;-77
2022/04/20 20:46:36;;;;;;;12.52;5.53;;;;;;;;;;5052794;27;95382;-74
2022/04/20 20:52:00;;;;;;;10.88;5.70;;;;;;;;;;5042138;27;97528;-75
2022/04/20 20:54:27;;;;;;;13.20;6.43;;;;;;;;;;5053914;27;95360;-77
2022/04/20 20:56:53;;;;;;;14.00;6.05;;;;;;;;;;5043000;27;97262;-78
2022/04/20 20:59:20;;;;;;;15.98;6.03;;;;;;;;;;5048415;27;96754;-78
2022/04/20 21:01:46;;;;;;;11.75;6.20;;;;;;;;;;5065980;27;96877;-77
2022/04/20 21:04:13;;;;;;;15.90;7.00;;;;;;;;;;5074863;27;97234;-77
2022/04/20 21:06:40;;;;;;;22.17;6.57;;;;;;;;;;5059760;27;95149;-74
2022/04/20 21:09:13;;;;;;;13.18;6.10;;;;;;;;;;5033784;27;96266;-79
2022/04/20 21:11:42;;;;;;;9.60;5.68;;;;;;;;;;5034149;27;97303;-78
2022/04/20 21:14:14;;;;;;;12.05;5.45;;;;;;;;;;5017890;28;95357;-78
2022/04/20 21:16:41;;;;;;;16.60;5.78;;;;;;;;;;5039897;27;95797;-78
2022/04/20 21:19:10;;;;;;;11.63;5.90;;;;;;;;;;5057835;27;96709;-77
2022/04/20 21:21:40;;;;;;;11.40;6.03;;;;;;;;;;5054310;27;95758;-76
2022/04/20 21:24:07;;;;;;;12.48;5.85;;;;;;;;;;5054265;27;96797;-77
2022/04/20 21:26:36;;;;;;;10.30;5.40;;;;;;;;;;5053837;27;95412;-77
2022/04/20 21:29:03;;;;;;;12.32;5.75;;;;;;;;;;5054194;27;97048;-77
2022/04/20 21:31:31;;;;;;;16.23;5.95;;;;;;;;;;5033243;27;97335;-75
2022/04/20 21:33:58;;;;;;;16.23;5.70;;;;;;;;;;5054528;27;95177;-78
2022/04/20 21:36:25;;;;;;;10.25;5.50;;;;;;;;;;5054217;27;96754;-78
2022/04/20 21:38:51;;;;;;;13.38;5.32;;;;;;;;;;5054007;27;97427;-77
2022/04/20 21:41:18;;;;;;;12.00;6.03;;;;;;;;;;5056555;27;95125;-76
2022/04/20 21:43:44;;;;;;;11.02;5.47;;;;;;;;;;5053882;27;97641;-78
2022/04/20 21:46:10;;;;;;;13.10;5.93;;;;;;;;;;5053038;27;95199;-78
2022/04/20 21:48:37;;;;;;;14.02;5.82;;;;;;;;;;5054141;27;97023;-76
2022/04/20 21:51:03;;;;;;;11.88;5.95;;;;;;;;;;5053762;27;97608;-75
2022/04/20 21:53:30;;;;;;;13.00;6.22;;;;;;;;;;5053541;27;95171;-77
2022/04/20 21:55:57;;;;;;;9.45;5.32;;;;;;;;;;5035122;27;96756;-76
2022/04/20 21:58:27;;;;;;;9.90;6.10;;;;;;;;;;5034569;27;96124;-76
2022/04/20 22:00:55;;;;;;;10.95;5.95;;;;;;;;;;5052770;27;95842;-76
2022/04/20 22:09:06;;;;;;;12.13;6.80;;;;;;;;;;5053962;27;95610;-75
2022/04/20 22:14:20;;;;;;;13.13;6.78;;;;;;;;;;5052302;27;95237;-77
2022/04/20 22:16:46;;;;;;;21.77;6.63;;;;;;;;;;5053475;27;96493;-76
2022/04/20 22:19:14;;;;;;;16.50;6.38;;;;;;;;;;5035335;27;97381;-75
2022/04/20 22:21:40;;;;;;;14.93;7.22;;;;;;;;;;5035038;27;95367;-75
2022/04/20 22:24:07;;;;;;;20.40;7.35;;;;;;;;;;5053292;27;95823;-75
2022/04/20 22:26:33;;;;;;;13.85;7.28;;;;;;;;;;5056497;27;97328;-75
2022/04/20 22:29:00;;;;;;;11.98;6.60;;;;;;;;;;5053265;27;97000;-75
2022/04/20 22:31:26;;;;;;;11.32;7.30;;;;;;;;;;5034517;27;97254;-75
2022/04/20 22:33:58;;;;;;;11.10;7.10;;;;;;;;;;5053746;27;95216;-75
2022/04/20 22:36:24;;;;;;;13.60;7.95;;;;;;;;;;5052538;27;95919;-75
2022/04/20 22:38:50;;;;;;;13.55;7.70;;;;;;;;;;5053501;27;97445;-76
2022/04/20 22:41:18;;;;;;;11.88;7.05;;;;;;;;;;5052296;27;95323;-76
2022/04/20 22:43:44;;;;;;;11.80;7.03;;;;;;;;;;5053735;27;96777;-77
2022/04/20 22:46:11;;;;;;;13.80;7.43;;;;;;;;;;5052721;27;97351;-77
2022/04/20 22:48:38;;;;;;;13.35;7.25;;;;;;;;;;5038067;27;95471;-78
2022/04/20 22:51:04;;;;;;;15.27;7.65;;;;;;;;;;5053180;27;96258;-76
2022/04/20 22:53:31;;;;;;;14.10;7.80;;;;;;;;;;5052960;27;95056;-74
2022/04/20 22:55:57;;;;;;;13.90;7.80;;;;;;;;;;5052344;27;96826;-77
2022/04/20 22:58:23;;;;;;;11.77;7.72;;;;;;;;;;5052579;27;97455;-77
2022/04/20 23:00:50;;;;;;;12.38;7.88;;;;;;;;;;5052340;27;95288;-77
2022/04/20 23:03:16;;;;;;;24.23;8.50;;;;;;;;;;5052328;27;96581;-76
2022/04/20 23:05:42;;;;;;;12.80;7.35;;;;;;;;;;5052029;27;97137;-77
2022/04/20 23:08:09;;;;;;;12.52;8.25;;;;;;;;;;5056096;27;95378;-77
2022/04/20 23:10:35;;;;;;;16.90;7.88;;;;;;;;;;5052351;27;97993;-75
2022/04/20 23:13:01;;;;;;;16.95;8.25;;;;;;;;;;5034540;27;95354;-76
2022/04/20 23:15:28;;;;;;;13.35;7.43;;;;;;;;;;5052411;27;96842;-75
2022/04/20 23:17:54;;;;;;;12.85;7.97;;;;;;;;;;5051730;27;99256;-76
2022/04/20 23:20:20;;;;;;;14.32;7.82;;;;;;;;;;5052334;27;95436;-77
2022/04/20 23:22:47;;;;;;;12.20;8.25;;;;;;;;;;5052496;27;96814;-75
2022/04/20 23:30:44;;;;;;;11.05;7.72;;;;;;;;;;5054577;27;95886;-78
2022/04/20 23:33:14;;;;;;;13.32;7.82;;;;;;;;;;5054638;27;95375;-76
2022/04/20 23:35:41;;;;;;;11.95;8.10;;;;;;;;;;5056076;27;96786;-77
2022/04/20 23:38:07;;;;;;;15.70;7.65;;;;;;;;;;5055003;27;97299;-75
2022/04/20 23:40:34;;;;;;;17.45;8.27;;;;;;;;;;5055660;27;95385;-74
2022/04/20 23:43:01;;;;;;;11.77;7.82;;;;;;;;;;5055841;27;97009;-74
2022/04/20 23:45:29;;;;;;;10.90;7.47;;;;;;;;;;5053978;27;97620;-77
2022/04/20 23:47:56;;;;;;;16.75;8.20;;;;;;;;;;5056116;27;95290;-77
2022/04/20 23:50:23;;;;;;;26.08;8.82;;;;;;;;;;5055406;27;96689;-77
2022/04/20 23:52:51;;;;;;;12.20;7.57;;;;;;;;;;5057949;27;96158;-76
2022/04/20 23:55:18;;;;;;;15.05;8.35;;;;;;;;;;5055120;27;96938;-77
2022/04/20 23:57:45;;;;;;;12.10;7.90;;;;;;;;;;5055501;27;97524;-76
